createdAt,value
2018-02-06T00:03:01.000Z,1014.448
2018-02-06T00:13:00.000Z,1014.322
2018-02-06T00:23:00.000Z,1014.13
2018-02-06T00:33:01.000Z,1013.896
2018-02-06T00:43:01.000Z,1013.768
2018-02-06T00:53:01.000Z,1013.599
2018-02-06T01:03:01.000Z,1013.423
2018-02-06T01:13:01.000Z,1013.349
2018-02-06T01:23:01.000Z,1013.253
2018-02-06T01:33:01.000Z,1013.115
2018-02-06T01:43:01.000Z,1012.891
2018-02-06T01:53:01.000Z,1012.767
2018-02-06T02:03:01.000Z,1012.54
2018-02-06T02:13:01.000Z,1012.471
2018-02-06T02:23:01.000Z,1012.274
2018-02-06T02:33:01.000Z,1012.176
2018-02-06T04:43:01.000Z,1011.053
2018-02-06T04:53:01.000Z,1011.006
2018-02-06T05:03:01.000Z,1010.914
2018-02-06T05:13:01.000Z,1010.824
2018-02-06T05:23:01.000Z,1010.732
2018-02-06T05:33:01.000Z,1010.573
2018-02-06T05:43:01.000Z,1010.48
2018-02-06T05:53:01.000Z,1010.325
2018-02-06T06:03:01.000Z,1010.204
2018-02-06T06:13:01.000Z,1010.08
2018-02-06T06:23:01.000Z,1009.954
2018-02-06T06:33:01.000Z,1009.826
2018-02-06T06:43:01.000Z,1009.716
2018-02-06T06:53:01.000Z,1009.738
2018-02-06T07:03:01.000Z,1009.706
2018-02-06T07:13:01.000Z,1009.674
2018-02-06T07:23:01.000Z,1009.611
2018-02-06T07:33:01.000Z,1009.521
2018-02-06T07:43:01.000Z,1009.518
2018-02-06T07:53:01.000Z,1009.473
2018-02-06T08:03:01.000Z,1009.466
2018-02-06T08:13:01.000Z,1009.424
2018-02-06T08:23:01.000Z,1009.336
2018-02-06T08:33:01.000Z,1009.204
2018-02-06T08:43:01.000Z,1009.126
2018-02-06T08:53:01.000Z,1009.089
2018-02-06T09:03:01.000Z,1008.918
2018-02-06T09:13:02.000Z,1008.867
2018-02-06T09:23:02.000Z,1008.81
2018-02-06T09:33:02.000Z,1008.793
2018-02-06T09:43:02.000Z,1008.702
2018-02-06T09:53:04.000Z,1008.66
2018-02-06T10:03:02.000Z,1008.536
2018-02-06T10:13:02.000Z,1008.481
2018-02-06T10:23:02.000Z,1008.389
2018-02-06T10:33:02.000Z,1008.334
2018-02-06T10:43:02.000Z,1008.206
2018-02-06T10:53:02.000Z,1008.082
2018-02-06T11:03:02.000Z,1007.924
2018-02-06T11:23:02.000Z,1008.011
2018-02-06T11:33:02.000Z,1007.904
2018-02-06T11:43:02.000Z,1007.867
2018-02-06T11:53:02.000Z,1007.659
2018-02-06T12:03:02.000Z,1007.676
2018-02-06T12:13:02.000Z,1007.339
2018-02-06T12:23:02.000Z,1007.184
2018-02-06T12:33:02.000Z,1007.106
2018-02-06T12:43:02.000Z,1006.936
2018-02-06T12:53:02.000Z,1006.895
2018-02-06T13:03:02.000Z,1006.818
2018-02-06T13:13:02.000Z,1006.778
2018-02-06T13:23:02.000Z,1006.715
2018-02-06T13:33:02.000Z,1006.441
2018-02-06T13:43:02.000Z,1006.323
2018-02-06T13:53:02.000Z,1006.243
2018-02-06T14:03:02.000Z,1006.242
2018-02-06T14:13:02.000Z,1006.171
2018-02-06T14:23:02.000Z,1006.162
2018-02-06T14:33:02.000Z,1006.11
2018-02-06T14:43:02.000Z,1006.024
2018-02-06T14:53:02.000Z,1005.882
2018-02-06T15:03:02.000Z,1005.961
2018-02-06T15:13:02.000Z,1005.956
2018-02-06T15:23:02.000Z,1006.027
2018-02-06T15:33:03.000Z,1005.965
2018-02-06T15:43:02.000Z,1006.027
2018-02-06T15:53:02.000Z,1005.992
2018-02-06T16:03:02.000Z,1005.976
2018-02-06T16:13:02.000Z,1005.831
2018-02-06T16:23:02.000Z,1005.832
2018-02-06T16:33:02.000Z,1005.898
2018-02-06T16:43:02.000Z,1005.918
2018-02-06T16:53:02.000Z,1005.783
2018-02-06T17:03:02.000Z,1005.721
2018-02-06T17:13:02.000Z,1005.665
2018-02-06T17:23:02.000Z,1005.799
2018-02-06T17:33:03.000Z,1005.854
2018-02-06T17:43:03.000Z,1005.929
2018-02-06T17:53:03.000Z,1005.947
2018-02-06T18:03:03.000Z,1006.004
2018-02-06T18:13:03.000Z,1005.986
2018-02-06T18:23:03.000Z,1005.979
2018-02-06T18:33:03.000Z,1005.932
2018-02-06T18:43:03.000Z,1005.875
2018-02-06T18:53:03.000Z,1005.896
2018-02-06T19:03:03.000Z,1006.037
2018-02-06T19:13:03.000Z,1006.033
2018-02-06T19:23:03.000Z,1006.02
2018-02-06T19:33:03.000Z,1005.995
2018-02-06T19:43:03.000Z,1006.124
2018-02-06T19:53:03.000Z,1006.156
2018-02-06T20:03:03.000Z,1006.248
2018-02-06T20:13:03.000Z,1006.243
2018-02-06T20:23:03.000Z,1006.279
2018-02-06T20:33:03.000Z,1006.15
2018-02-06T20:43:03.000Z,1006.244
2018-02-06T20:53:03.000Z,1006.286
2018-02-06T21:03:03.000Z,1006.372
2018-02-06T21:13:03.000Z,1006.43
2018-02-06T21:23:03.000Z,1006.426
2018-02-06T21:33:03.000Z,1006.449
2018-02-06T21:43:03.000Z,1006.417
2018-02-06T21:53:03.000Z,1006.37
2018-02-06T22:03:03.000Z,1006.416
2018-02-06T22:13:03.000Z,1006.429
2018-02-06T22:23:03.000Z,1006.579
2018-02-06T22:33:03.000Z,1006.442
2018-02-06T22:43:03.000Z,1006.497
2018-02-06T22:53:03.000Z,1006.526
2018-02-06T23:03:03.000Z,1006.514
2018-02-06T23:13:03.000Z,1006.527
2018-02-06T23:23:03.000Z,1006.5
2018-02-06T23:33:03.000Z,1006.511
2018-02-06T23:43:03.000Z,1006.513
2018-02-06T23:53:03.000Z,1006.56
